sensor_id;sensor_type;location;lat;lon;timestamp;temperature;humidity
1700;DHT22;847;48.058;7.810;2022-09-09T00:00:37;18.90;91.60
1700;DHT22;847;48.058;7.810;2022-09-09T00:03:12;18.90;91.70
1700;DHT22;847;48.058;7.810;2022-09-09T00:05:45;19.00;91.40
1700;DHT22;847;48.058;7.810;2022-09-09T00:08:18;19.00;91.50
1700;DHT22;847;48.058;7.810;2022-09-09T00:10:51;19.00;91.00
1700;DHT22;847;48.058;7.810;2022-09-09T00:13:23;19.00;91.00
1700;DHT22;847;48.058;7.810;2022-09-09T00:15:59;19.00;90.40
1700;DHT22;847;48.058;7.810;2022-09-09T00:18:31;19.10;89.40
1700;DHT22;847;48.058;7.810;2022-09-09T00:21:04;18.90;91.50
1700;DHT22;847;48.058;7.810;2022-09-09T00:23:34;18.80;92.40
1700;DHT22;847;48.058;7.810;2022-09-09T00:26:09;18.80;92.20
1700;DHT22;847;48.058;7.810;2022-09-09T00:28:41;18.80;91.80
1700;DHT22;847;48.058;7.810;2022-09-09T00:31:18;18.70;90.90
1700;DHT22;847;48.058;7.810;2022-09-09T00:33:48;18.70;91.10
1700;DHT22;847;48.058;7.810;2022-09-09T00:36:18;18.90;90.20
1700;DHT22;847;48.058;7.810;2022-09-09T00:38:51;18.80;89.80
1700;DHT22;847;48.058;7.810;2022-09-09T00:41:21;18.80;89.70
1700;DHT22;847;48.058;7.810;2022-09-09T00:43:56;18.80;89.70
1700;DHT22;847;48.058;7.810;2022-09-09T00:46:40;18.70;90.20
1700;DHT22;847;48.058;7.810;2022-09-09T00:49:18;18.80;90.60
1700;DHT22;847;48.058;7.810;2022-09-09T00:51:52;18.80;89.80
1700;DHT22;847;48.058;7.810;2022-09-09T00:54:42;18.80;89.50
1700;DHT22;847;48.058;7.810;2022-09-09T00:57:17;18.90;89.40
1700;DHT22;847;48.058;7.810;2022-09-09T00:59:51;18.80;89.50
1700;DHT22;847;48.058;7.810;2022-09-09T01:02:27;18.80;89.10
1700;DHT22;847;48.058;7.810;2022-09-09T01:04:59;18.80;88.60
1700;DHT22;847;48.058;7.810;2022-09-09T01:07:27;18.80;89.50
1700;DHT22;847;48.058;7.810;2022-09-09T01:09:58;18.70;89.40
1700;DHT22;847;48.058;7.810;2022-09-09T01:12:32;18.80;89.30
1700;DHT22;847;48.058;7.810;2022-09-09T01:15:09;18.80;89.20
1700;DHT22;847;48.058;7.810;2022-09-09T01:17:46;18.80;88.90
1700;DHT22;847;48.058;7.810;2022-09-09T01:20:18;18.80;88.30
1700;DHT22;847;48.058;7.810;2022-09-09T01:22:56;18.80;88.80
1700;DHT22;847;48.058;7.810;2022-09-09T01:25:30;18.80;88.60
1700;DHT22;847;48.058;7.810;2022-09-09T01:28:01;18.80;88.90
1700;DHT22;847;48.058;7.810;2022-09-09T01:30:30;18.80;89.50
1700;DHT22;847;48.058;7.810;2022-09-09T01:32:59;18.70;88.90
1700;DHT22;847;48.058;7.810;2022-09-09T01:35:41;18.70;89.40
1700;DHT22;847;48.058;7.810;2022-09-09T01:38:09;18.70;89.20
1700;DHT22;847;48.058;7.810;2022-09-09T01:40:36;18.80;88.90
1700;DHT22;847;48.058;7.810;2022-09-09T01:43:05;18.80;88.40
1700;DHT22;847;48.058;7.810;2022-09-09T01:45:33;18.80;88.40
1700;DHT22;847;48.058;7.810;2022-09-09T01:48:00;18.80;88.10
1700;DHT22;847;48.058;7.810;2022-09-09T01:50:28;18.80;88.30
1700;DHT22;847;48.058;7.810;2022-09-09T01:52:57;18.90;88.10
1700;DHT22;847;48.058;7.810;2022-09-09T01:55:29;18.90;87.60
1700;DHT22;847;48.058;7.810;2022-09-09T01:58:08;18.90;87.90
1700;DHT22;847;48.058;7.810;2022-09-09T02:00:40;18.90;87.60
1700;DHT22;847;48.058;7.810;2022-09-09T02:03:16;18.90;87.90
1700;DHT22;847;48.058;7.810;2022-09-09T02:05:52;18.90;87.70
1700;DHT22;847;48.058;7.810;2022-09-09T02:08:26;18.90;87.90
1700;DHT22;847;48.058;7.810;2022-09-09T02:10:59;18.90;87.60
1700;DHT22;847;48.058;7.810;2022-09-09T02:13:29;19.00;87.70
1700;DHT22;847;48.058;7.810;2022-09-09T02:16:03;19.00;87.30
1700;DHT22;847;48.058;7.810;2022-09-09T02:18:35;19.00;87.10
1700;DHT22;847;48.058;7.810;2022-09-09T02:21:05;19.10;86.80
1700;DHT22;847;48.058;7.810;2022-09-09T02:23:34;19.00;87.20
1700;DHT22;847;48.058;7.810;2022-09-09T02:26:02;19.10;87.40
1700;DHT22;847;48.058;7.810;2022-09-09T02:28:33;19.10;87.30
1700;DHT22;847;48.058;7.810;2022-09-09T02:31:01;19.10;87.40
1700;DHT22;847;48.058;7.810;2022-09-09T02:33:33;19.10;87.70
1700;DHT22;847;48.058;7.810;2022-09-09T02:36:02;19.00;87.60
1700;DHT22;847;48.058;7.810;2022-09-09T02:38:34;19.00;87.80
1700;DHT22;847;48.058;7.810;2022-09-09T02:41:02;19.10;87.90
1700;DHT22;847;48.058;7.810;2022-09-09T02:43:33;19.10;88.00
1700;DHT22;847;48.058;7.810;2022-09-09T02:46:08;19.00;88.10
1700;DHT22;847;48.058;7.810;2022-09-09T02:48:43;19.00;88.60
1700;DHT22;847;48.058;7.810;2022-09-09T02:51:20;18.90;88.80
1700;DHT22;847;48.058;7.810;2022-09-09T02:53:59;18.90;88.10
1700;DHT22;847;48.058;7.810;2022-09-09T02:56:31;18.90;89.40
1700;DHT22;847;48.058;7.810;2022-09-09T02:59:03;18.70;89.90
1700;DHT22;847;48.058;7.810;2022-09-09T03:01:30;18.70;90.70
1700;DHT22;847;48.058;7.810;2022-09-09T03:03:57;18.50;91.40
1700;DHT22;847;48.058;7.810;2022-09-09T03:06:24;18.40;92.10
1700;DHT22;847;48.058;7.810;2022-09-09T03:08:50;18.30;92.30
1700;DHT22;847;48.058;7.810;2022-09-09T03:11:18;18.30;92.50
1700;DHT22;847;48.058;7.810;2022-09-09T03:13:44;18.30;92.90
1700;DHT22;847;48.058;7.810;2022-09-09T03:16:12;18.10;93.00
1700;DHT22;847;48.058;7.810;2022-09-09T03:18:40;18.20;93.30
1700;DHT22;847;48.058;7.810;2022-09-09T03:21:08;18.30;93.60
1700;DHT22;847;48.058;7.810;2022-09-09T03:23:34;18.30;93.50
1700;DHT22;847;48.058;7.810;2022-09-09T03:26:04;18.30;93.30
1700;DHT22;847;48.058;7.810;2022-09-09T03:28:31;18.20;94.00
1700;DHT22;847;48.058;7.810;2022-09-09T03:30:59;18.10;94.00
1700;DHT22;847;48.058;7.810;2022-09-09T03:33:27;18.10;94.00
1700;DHT22;847;48.058;7.810;2022-09-09T03:35:55;18.00;94.20
1700;DHT22;847;48.058;7.810;2022-09-09T03:38:22;17.90;94.60
1700;DHT22;847;48.058;7.810;2022-09-09T03:40:50;18.10;94.20
1700;DHT22;847;48.058;7.810;2022-09-09T03:43:19;18.10;93.90
1700;DHT22;847;48.058;7.810;2022-09-09T03:45:46;18.10;94.10
1700;DHT22;847;48.058;7.810;2022-09-09T03:48:13;18.10;94.00
1700;DHT22;847;48.058;7.810;2022-09-09T03:50:45;18.10;94.50
1700;DHT22;847;48.058;7.810;2022-09-09T03:53:13;18.00;95.00
1700;DHT22;847;48.058;7.810;2022-09-09T03:55:43;18.00;95.00
1700;DHT22;847;48.058;7.810;2022-09-09T03:58:11;17.90;95.40
1700;DHT22;847;48.058;7.810;2022-09-09T04:00:38;17.90;95.30
1700;DHT22;847;48.058;7.810;2022-09-09T04:03:08;17.90;95.20
1700;DHT22;847;48.058;7.810;2022-09-09T04:05:35;17.90;95.00
1700;DHT22;847;48.058;7.810;2022-09-09T04:08:06;17.90;94.80
1700;DHT22;847;48.058;7.810;2022-09-09T04:10:33;17.90;94.70
1700;DHT22;847;48.058;7.810;2022-09-09T04:13:01;17.80;94.90
1700;DHT22;847;48.058;7.810;2022-09-09T04:15:28;17.80;95.00
1700;DHT22;847;48.058;7.810;2022-09-09T04:17:55;17.80;95.00
1700;DHT22;847;48.058;7.810;2022-09-09T04:20:22;17.80;95.00
1700;DHT22;847;48.058;7.810;2022-09-09T04:22:49;17.80;94.80
1700;DHT22;847;48.058;7.810;2022-09-09T04:25:17;17.80;95.00
1700;DHT22;847;48.058;7.810;2022-09-09T04:27:44;17.70;95.10
1700;DHT22;847;48.058;7.810;2022-09-09T04:30:11;17.80;95.00
1700;DHT22;847;48.058;7.810;2022-09-09T04:32:38;17.80;94.60
1700;DHT22;847;48.058;7.810;2022-09-09T04:35:05;17.90;93.90
1700;DHT22;847;48.058;7.810;2022-09-09T04:37:32;18.10;93.80
1700;DHT22;847;48.058;7.810;2022-09-09T04:39:59;18.10;93.70
1700;DHT22;847;48.058;7.810;2022-09-09T04:42:28;18.10;93.80
1700;DHT22;847;48.058;7.810;2022-09-09T04:44:55;18.20;93.30
1700;DHT22;847;48.058;7.810;2022-09-09T04:47:22;18.20;93.20
1700;DHT22;847;48.058;7.810;2022-09-09T04:49:48;18.30;93.20
1700;DHT22;847;48.058;7.810;2022-09-09T04:52:15;18.30;92.80
1700;DHT22;847;48.058;7.810;2022-09-09T04:54:42;18.30;92.90
1700;DHT22;847;48.058;7.810;2022-09-09T04:57:10;18.40;92.80
1700;DHT22;847;48.058;7.810;2022-09-09T04:59:38;18.40;92.80
1700;DHT22;847;48.058;7.810;2022-09-09T05:02:06;18.40;92.50
1700;DHT22;847;48.058;7.810;2022-09-09T05:04:32;18.50;92.20
1700;DHT22;847;48.058;7.810;2022-09-09T05:06:59;18.50;92.00
1700;DHT22;847;48.058;7.810;2022-09-09T05:09:26;18.50;91.80
1700;DHT22;847;48.058;7.810;2022-09-09T05:11:52;18.60;92.00
1700;DHT22;847;48.058;7.810;2022-09-09T05:14:20;18.50;92.10
1700;DHT22;847;48.058;7.810;2022-09-09T05:16:49;18.50;91.80
1700;DHT22;847;48.058;7.810;2022-09-09T05:19:16;18.50;91.90
1700;DHT22;847;48.058;7.810;2022-09-09T05:21:45;18.60;92.40
1700;DHT22;847;48.058;7.810;2022-09-09T05:24:12;18.60;92.10
1700;DHT22;847;48.058;7.810;2022-09-09T05:26:38;18.60;91.90
1700;DHT22;847;48.058;7.810;2022-09-09T05:29:05;18.60;92.20
1700;DHT22;847;48.058;7.810;2022-09-09T05:31:33;18.60;92.10
1700;DHT22;847;48.058;7.810;2022-09-09T05:34:01;18.70;92.00
1700;DHT22;847;48.058;7.810;2022-09-09T05:36:28;18.70;91.70
1700;DHT22;847;48.058;7.810;2022-09-09T05:38:55;18.70;92.00
1700;DHT22;847;48.058;7.810;2022-09-09T05:41:22;18.70;92.10
1700;DHT22;847;48.058;7.810;2022-09-09T05:43:49;18.70;91.70
1700;DHT22;847;48.058;7.810;2022-09-09T05:46:17;18.70;91.90
1700;DHT22;847;48.058;7.810;2022-09-09T05:48:46;18.80;92.00
1700;DHT22;847;48.058;7.810;2022-09-09T05:51:17;18.80;91.50
1700;DHT22;847;48.058;7.810;2022-09-09T05:53:44;18.80;91.50
1700;DHT22;847;48.058;7.810;2022-09-09T05:56:13;18.80;91.50
1700;DHT22;847;48.058;7.810;2022-09-09T05:58:41;18.90;91.60
1700;DHT22;847;48.058;7.810;2022-09-09T06:01:10;18.90;90.90
1700;DHT22;847;48.058;7.810;2022-09-09T06:03:38;18.90;91.00
1700;DHT22;847;48.058;7.810;2022-09-09T06:06:07;18.90;90.90
1700;DHT22;847;48.058;7.810;2022-09-09T06:08:38;18.90;91.40
1700;DHT22;847;48.058;7.810;2022-09-09T06:11:06;18.90;91.40
1700;DHT22;847;48.058;7.810;2022-09-09T06:13:34;18.90;91.10
1700;DHT22;847;48.058;7.810;2022-09-09T06:16:02;18.90;91.40
1700;DHT22;847;48.058;7.810;2022-09-09T06:18:29;19.00;91.70
1700;DHT22;847;48.058;7.810;2022-09-09T06:20:57;18.90;91.70
1700;DHT22;847;48.058;7.810;2022-09-09T06:23:25;19.00;91.60
1700;DHT22;847;48.058;7.810;2022-09-09T06:26:00;19.00;91.50
1700;DHT22;847;48.058;7.810;2022-09-09T06:28:27;19.00;91.80
1700;DHT22;847;48.058;7.810;2022-09-09T06:30:57;19.00;91.20
1700;DHT22;847;48.058;7.810;2022-09-09T06:33:24;19.10;90.90
1700;DHT22;847;48.058;7.810;2022-09-09T06:35:51;19.10;90.90
1700;DHT22;847;48.058;7.810;2022-09-09T06:38:18;19.10;91.10
1700;DHT22;847;48.058;7.810;2022-09-09T06:40:52;19.10;91.10
1700;DHT22;847;48.058;7.810;2022-09-09T06:43:20;19.20;90.60
1700;DHT22;847;48.058;7.810;2022-09-09T06:45:53;19.20;90.50
1700;DHT22;847;48.058;7.810;2022-09-09T06:48:20;19.20;90.40
1700;DHT22;847;48.058;7.810;2022-09-09T06:50:47;19.20;90.50
1700;DHT22;847;48.058;7.810;2022-09-09T06:53:16;19.20;90.30
1700;DHT22;847;48.058;7.810;2022-09-09T06:55:45;19.20;90.50
1700;DHT22;847;48.058;7.810;2022-09-09T06:58:13;19.20;90.50
1700;DHT22;847;48.058;7.810;2022-09-09T07:00:39;19.20;90.30
1700;DHT22;847;48.058;7.810;2022-09-09T07:03:06;19.20;90.40
1700;DHT22;847;48.058;7.810;2022-09-09T07:05:33;19.20;90.20
1700;DHT22;847;48.058;7.810;2022-09-09T07:08:00;19.20;90.00
1700;DHT22;847;48.058;7.810;2022-09-09T07:10:27;19.20;90.20
1700;DHT22;847;48.058;7.810;2022-09-09T07:12:54;19.20;90.20
1700;DHT22;847;48.058;7.810;2022-09-09T07:15:22;19.20;90.50
1700;DHT22;847;48.058;7.810;2022-09-09T07:17:49;19.30;90.30
1700;DHT22;847;48.058;7.810;2022-09-09T07:20:16;19.30;90.60
1700;DHT22;847;48.058;7.810;2022-09-09T07:22:42;19.30;90.20
1700;DHT22;847;48.058;7.810;2022-09-09T07:25:09;19.40;90.20
1700;DHT22;847;48.058;7.810;2022-09-09T07:27:36;19.40;90.20
1700;DHT22;847;48.058;7.810;2022-09-09T07:30:04;19.40;89.90
1700;DHT22;847;48.058;7.810;2022-09-09T07:32:32;19.50;89.70
1700;DHT22;847;48.058;7.810;2022-09-09T07:34:59;19.50;89.60
1700;DHT22;847;48.058;7.810;2022-09-09T07:37:26;19.60;89.10
1700;DHT22;847;48.058;7.810;2022-09-09T07:39:52;19.50;89.40
1700;DHT22;847;48.058;7.810;2022-09-09T07:42:19;19.60;89.00
1700;DHT22;847;48.058;7.810;2022-09-09T07:44:46;19.60;89.10
1700;DHT22;847;48.058;7.810;2022-09-09T07:47:12;19.60;89.10
1700;DHT22;847;48.058;7.810;2022-09-09T07:49:40;19.60;89.30
1700;DHT22;847;48.058;7.810;2022-09-09T07:52:07;19.70;89.00
1700;DHT22;847;48.058;7.810;2022-09-09T07:54:34;19.80;88.50
1700;DHT22;847;48.058;7.810;2022-09-09T07:57:01;19.70;88.50
1700;DHT22;847;48.058;7.810;2022-09-09T07:59:29;19.70;88.40
1700;DHT22;847;48.058;7.810;2022-09-09T08:01:56;19.70;88.50
1700;DHT22;847;48.058;7.810;2022-09-09T08:04:25;19.60;88.40
1700;DHT22;847;48.058;7.810;2022-09-09T08:06:56;19.70;88.40
1700;DHT22;847;48.058;7.810;2022-09-09T08:09:24;20.00;87.50
1700;DHT22;847;48.058;7.810;2022-09-09T08:11:52;20.20;87.00
1700;DHT22;847;48.058;7.810;2022-09-09T08:14:19;20.50;86.00
1700;DHT22;847;48.058;7.810;2022-09-09T08:16:47;20.60;85.20
1700;DHT22;847;48.058;7.810;2022-09-09T08:19:15;20.80;85.40
1700;DHT22;847;48.058;7.810;2022-09-09T08:21:43;20.90;84.50
1700;DHT22;847;48.058;7.810;2022-09-09T08:24:12;21.00;84.00
1700;DHT22;847;48.058;7.810;2022-09-09T08:26:41;21.20;83.60
1700;DHT22;847;48.058;7.810;2022-09-09T08:29:10;21.30;83.10
1700;DHT22;847;48.058;7.810;2022-09-09T08:31:38;21.40;83.40
1700;DHT22;847;48.058;7.810;2022-09-09T08:34:07;21.50;82.80
1700;DHT22;847;48.058;7.810;2022-09-09T08:36:36;21.50;82.60
1700;DHT22;847;48.058;7.810;2022-09-09T08:39:04;21.60;82.50
1700;DHT22;847;48.058;7.810;2022-09-09T08:41:46;21.50;82.30
1700;DHT22;847;48.058;7.810;2022-09-09T08:44:23;21.50;82.70
1700;DHT22;847;48.058;7.810;2022-09-09T08:47:03;21.70;82.80
1700;DHT22;847;48.058;7.810;2022-09-09T08:49:49;21.70;82.60
1700;DHT22;847;48.058;7.810;2022-09-09T08:52:23;21.80;82.40
1700;DHT22;847;48.058;7.810;2022-09-09T08:54:52;21.80;81.70
1700;DHT22;847;48.058;7.810;2022-09-09T08:57:25;21.80;80.90
1700;DHT22;847;48.058;7.810;2022-09-09T08:59:53;21.90;81.10
1700;DHT22;847;48.058;7.810;2022-09-09T09:02:24;22.00;81.80
1700;DHT22;847;48.058;7.810;2022-09-09T09:05:03;21.90;80.60
1700;DHT22;847;48.058;7.810;2022-09-09T09:07:42;21.80;80.10
1700;DHT22;847;48.058;7.810;2022-09-09T09:10:19;21.90;80.20
1700;DHT22;847;48.058;7.810;2022-09-09T09:12:48;22.00;79.50
1700;DHT22;847;48.058;7.810;2022-09-09T09:15:19;22.10;78.10
1700;DHT22;847;48.058;7.810;2022-09-09T09:17:47;22.10;77.80
1700;DHT22;847;48.058;7.810;2022-09-09T09:20:16;22.10;77.80
1700;DHT22;847;48.058;7.810;2022-09-09T09:22:48;22.10;77.20
1700;DHT22;847;48.058;7.810;2022-09-09T09:25:18;22.10;76.60
1700;DHT22;847;48.058;7.810;2022-09-09T09:27:52;22.10;77.00
1700;DHT22;847;48.058;7.810;2022-09-09T09:30:26;22.10;76.80
1700;DHT22;847;48.058;7.810;2022-09-09T09:32:59;22.10;77.20
1700;DHT22;847;48.058;7.810;2022-09-09T09:35:27;22.20;77.30
1700;DHT22;847;48.058;7.810;2022-09-09T09:37:55;22.20;76.30
1700;DHT22;847;48.058;7.810;2022-09-09T09:40:22;22.10;76.00
1700;DHT22;847;48.058;7.810;2022-09-09T09:42:53;22.20;76.20
1700;DHT22;847;48.058;7.810;2022-09-09T09:45:27;22.20;75.10
1700;DHT22;847;48.058;7.810;2022-09-09T09:47:59;22.20;75.70
1700;DHT22;847;48.058;7.810;2022-09-09T09:50:28;22.30;75.80
1700;DHT22;847;48.058;7.810;2022-09-09T09:52:55;22.40;76.30
1700;DHT22;847;48.058;7.810;2022-09-09T09:55:23;22.50;75.90
1700;DHT22;847;48.058;7.810;2022-09-09T09:57:52;22.50;74.50
1700;DHT22;847;48.058;7.810;2022-09-09T10:00:22;22.60;74.00
1700;DHT22;847;48.058;7.810;2022-09-09T10:02:50;22.60;73.40
1700;DHT22;847;48.058;7.810;2022-09-09T10:05:20;22.70;74.20
1700;DHT22;847;48.058;7.810;2022-09-09T10:07:59;22.50;73.60
1700;DHT22;847;48.058;7.810;2022-09-09T10:10:35;22.40;71.70
1700;DHT22;847;48.058;7.810;2022-09-09T10:13:11;22.40;72.10
1700;DHT22;847;48.058;7.810;2022-09-09T10:15:46;22.40;70.50
1700;DHT22;847;48.058;7.810;2022-09-09T10:18:38;22.30;70.70
1700;DHT22;847;48.058;7.810;2022-09-09T10:21:16;22.20;71.20
1700;DHT22;847;48.058;7.810;2022-09-09T10:24:02;22.20;71.30
1700;DHT22;847;48.058;7.810;2022-09-09T10:26:40;22.00;71.30
1700;DHT22;847;48.058;7.810;2022-09-09T10:29:22;22.10;70.50
1700;DHT22;847;48.058;7.810;2022-09-09T10:31:57;21.90;72.50
1700;DHT22;847;48.058;7.810;2022-09-09T10:34:42;22.00;72.90
1700;DHT22;847;48.058;7.810;2022-09-09T10:37:26;22.10;73.40
1700;DHT22;847;48.058;7.810;2022-09-09T10:40:00;22.10;72.70
1700;DHT22;847;48.058;7.810;2022-09-09T10:42:31;22.10;72.70
1700;DHT22;847;48.058;7.810;2022-09-09T10:45:10;22.00;72.30
1700;DHT22;847;48.058;7.810;2022-09-09T10:47:53;22.00;71.40
1700;DHT22;847;48.058;7.810;2022-09-09T10:53:21;21.90;73.70
1700;DHT22;847;48.058;7.810;2022-09-09T10:55:53;22.00;73.90
1700;DHT22;847;48.058;7.810;2022-09-09T10:58:23;22.00;73.60
1700;DHT22;847;48.058;7.810;2022-09-09T11:00:55;22.00;74.50
1700;DHT22;847;48.058;7.810;2022-09-09T11:03:26;22.00;72.00
1700;DHT22;847;48.058;7.810;2022-09-09T11:05:59;21.80;73.20
1700;DHT22;847;48.058;7.810;2022-09-09T11:08:29;21.70;73.40
1700;DHT22;847;48.058;7.810;2022-09-09T11:11:00;21.80;74.40
1700;DHT22;847;48.058;7.810;2022-09-09T11:13:34;21.70;73.30
1700;DHT22;847;48.058;7.810;2022-09-09T11:16:17;21.80;73.00
1700;DHT22;847;48.058;7.810;2022-09-09T11:18:49;21.70;72.40
1700;DHT22;847;48.058;7.810;2022-09-09T11:21:19;21.80;72.20
1700;DHT22;847;48.058;7.810;2022-09-09T11:23:50;21.70;74.00
1700;DHT22;847;48.058;7.810;2022-09-09T11:26:30;21.70;73.90
1700;DHT22;847;48.058;7.810;2022-09-09T11:29:10;21.70;73.30
1700;DHT22;847;48.058;7.810;2022-09-09T11:31:58;21.60;72.40
1700;DHT22;847;48.058;7.810;2022-09-09T11:34:38;21.60;73.30
1700;DHT22;847;48.058;7.810;2022-09-09T11:37:21;21.60;74.80
1700;DHT22;847;48.058;7.810;2022-09-09T11:40:09;21.70;74.40
1700;DHT22;847;48.058;7.810;2022-09-09T11:42:40;21.70;75.10
1700;DHT22;847;48.058;7.810;2022-09-09T11:45:22;21.90;75.30
1700;DHT22;847;48.058;7.810;2022-09-09T11:47:53;21.90;73.60
1700;DHT22;847;48.058;7.810;2022-09-09T11:50:29;22.00;74.40
1700;DHT22;847;48.058;7.810;2022-09-09T11:53:21;22.00;74.30
1700;DHT22;847;48.058;7.810;2022-09-09T11:56:00;22.00;74.10
1700;DHT22;847;48.058;7.810;2022-09-09T11:58:29;22.00;74.40
1700;DHT22;847;48.058;7.810;2022-09-09T12:00:58;22.00;74.10
1700;DHT22;847;48.058;7.810;2022-09-09T12:03:40;22.00;74.30
1700;DHT22;847;48.058;7.810;2022-09-09T12:06:15;22.10;74.50
1700;DHT22;847;48.058;7.810;2022-09-09T12:08:46;22.30;71.00
1700;DHT22;847;48.058;7.810;2022-09-09T12:11:24;22.40;72.30
1700;DHT22;847;48.058;7.810;2022-09-09T12:13:55;22.40;69.10
1700;DHT22;847;48.058;7.810;2022-09-09T12:16:30;22.40;70.90
1700;DHT22;847;48.058;7.810;2022-09-09T12:19:07;22.40;69.70
1700;DHT22;847;48.058;7.810;2022-09-09T12:21:45;22.40;70.10
1700;DHT22;847;48.058;7.810;2022-09-09T12:24:18;22.40;71.20
1700;DHT22;847;48.058;7.810;2022-09-09T12:26:52;22.50;70.70
1700;DHT22;847;48.058;7.810;2022-09-09T12:29:26;22.50;70.30
1700;DHT22;847;48.058;7.810;2022-09-09T12:32:01;22.60;70.00
1700;DHT22;847;48.058;7.810;2022-09-09T12:34:38;22.70;68.70
1700;DHT22;847;48.058;7.810;2022-09-09T12:37:14;22.60;68.50
1700;DHT22;847;48.058;7.810;2022-09-09T12:39:45;22.50;69.30
1700;DHT22;847;48.058;7.810;2022-09-09T12:42:18;22.40;69.30
1700;DHT22;847;48.058;7.810;2022-09-09T12:44:52;22.30;70.10
1700;DHT22;847;48.058;7.810;2022-09-09T12:47:21;22.40;70.80
1700;DHT22;847;48.058;7.810;2022-09-09T12:49:50;22.30;68.90
1700;DHT22;847;48.058;7.810;2022-09-09T12:52:22;22.20;70.90
1700;DHT22;847;48.058;7.810;2022-09-09T12:54:51;22.30;72.00
1700;DHT22;847;48.058;7.810;2022-09-09T12:57:19;22.30;71.30
1700;DHT22;847;48.058;7.810;2022-09-09T12:59:46;22.30;71.40
1700;DHT22;847;48.058;7.810;2022-09-09T13:02:22;22.30;70.90
1700;DHT22;847;48.058;7.810;2022-09-09T13:04:50;22.10;70.30
1700;DHT22;847;48.058;7.810;2022-09-09T13:07:18;22.10;70.40
1700;DHT22;847;48.058;7.810;2022-09-09T13:09:46;22.10;71.10
1700;DHT22;847;48.058;7.810;2022-09-09T13:12:16;22.00;70.10
1700;DHT22;847;48.058;7.810;2022-09-09T13:14:46;21.90;72.00
1700;DHT22;847;48.058;7.810;2022-09-09T13:17:20;22.00;72.10
1700;DHT22;847;48.058;7.810;2022-09-09T13:19:49;22.00;72.70
1700;DHT22;847;48.058;7.810;2022-09-09T13:22:29;22.00;73.00
1700;DHT22;847;48.058;7.810;2022-09-09T13:25:00;22.00;72.60
1700;DHT22;847;48.058;7.810;2022-09-09T13:27:31;22.00;73.20
1700;DHT22;847;48.058;7.810;2022-09-09T13:29:59;21.90;71.90
1700;DHT22;847;48.058;7.810;2022-09-09T13:32:26;21.90;73.60
1700;DHT22;847;48.058;7.810;2022-09-09T13:34:57;21.80;74.50
1700;DHT22;847;48.058;7.810;2022-09-09T13:37:27;21.70;75.40
1700;DHT22;847;48.058;7.810;2022-09-09T13:39:57;21.60;74.70
1700;DHT22;847;48.058;7.810;2022-09-09T13:42:26;21.50;75.50
1700;DHT22;847;48.058;7.810;2022-09-09T13:45:06;21.50;75.50
1700;DHT22;847;48.058;7.810;2022-09-09T13:47:41;21.50;75.10
1700;DHT22;847;48.058;7.810;2022-09-09T13:50:19;21.40;75.60
1700;DHT22;847;48.058;7.810;2022-09-09T13:52:46;21.40;78.10
1700;DHT22;847;48.058;7.810;2022-09-09T13:55:14;21.40;77.90
1700;DHT22;847;48.058;7.810;2022-09-09T13:57:50;21.30;78.00
1700;DHT22;847;48.058;7.810;2022-09-09T14:00:19;21.20;78.50
1700;DHT22;847;48.058;7.810;2022-09-09T14:02:46;21.20;78.80
1700;DHT22;847;48.058;7.810;2022-09-09T14:05:13;21.30;78.30
1700;DHT22;847;48.058;7.810;2022-09-09T14:07:40;21.30;77.90
1700;DHT22;847;48.058;7.810;2022-09-09T14:10:08;21.40;77.00
1700;DHT22;847;48.058;7.810;2022-09-09T14:12:35;21.40;77.50
1700;DHT22;847;48.058;7.810;2022-09-09T14:15:02;21.50;77.30
1700;DHT22;847;48.058;7.810;2022-09-09T14:17:30;21.50;76.50
1700;DHT22;847;48.058;7.810;2022-09-09T14:19:57;21.40;77.00
1700;DHT22;847;48.058;7.810;2022-09-09T14:22:25;21.50;77.10
1700;DHT22;847;48.058;7.810;2022-09-09T14:24:52;21.50;77.00
1700;DHT22;847;48.058;7.810;2022-09-09T14:27:18;21.60;76.30
1700;DHT22;847;48.058;7.810;2022-09-09T14:29:45;21.70;76.90
1700;DHT22;847;48.058;7.810;2022-09-09T14:32:12;21.80;76.40
1700;DHT22;847;48.058;7.810;2022-09-09T14:34:40;21.80;76.60
1700;DHT22;847;48.058;7.810;2022-09-09T14:37:07;21.80;76.40
1700;DHT22;847;48.058;7.810;2022-09-09T14:39:34;21.90;77.00
1700;DHT22;847;48.058;7.810;2022-09-09T14:42:00;22.00;76.60
1700;DHT22;847;48.058;7.810;2022-09-09T14:44:27;22.00;75.60
1700;DHT22;847;48.058;7.810;2022-09-09T14:46:54;22.10;75.60
1700;DHT22;847;48.058;7.810;2022-09-09T14:49:23;22.00;74.70
1700;DHT22;847;48.058;7.810;2022-09-09T14:51:51;22.00;74.20
1700;DHT22;847;48.058;7.810;2022-09-09T14:54:18;22.00;74.60
1700;DHT22;847;48.058;7.810;2022-09-09T14:56:46;21.90;74.90
1700;DHT22;847;48.058;7.810;2022-09-09T14:59:13;21.90;75.10
1700;DHT22;847;48.058;7.810;2022-09-09T15:01:40;21.90;75.30
1700;DHT22;847;48.058;7.810;2022-09-09T15:04:07;21.80;74.80
1700;DHT22;847;48.058;7.810;2022-09-09T15:06:35;21.80;74.80
1700;DHT22;847;48.058;7.810;2022-09-09T15:09:05;21.80;75.10
1700;DHT22;847;48.058;7.810;2022-09-09T15:11:34;21.80;75.00
1700;DHT22;847;48.058;7.810;2022-09-09T15:14:03;21.80;75.40
1700;DHT22;847;48.058;7.810;2022-09-09T15:16:30;21.80;74.50
1700;DHT22;847;48.058;7.810;2022-09-09T15:18:59;21.80;74.40
1700;DHT22;847;48.058;7.810;2022-09-09T15:21:28;21.90;74.00
1700;DHT22;847;48.058;7.810;2022-09-09T15:23:55;21.90;71.40
1700;DHT22;847;48.058;7.810;2022-09-09T15:26:24;21.90;71.70
1700;DHT22;847;48.058;7.810;2022-09-09T15:28:51;21.90;73.50
1700;DHT22;847;48.058;7.810;2022-09-09T15:31:20;21.90;73.10
1700;DHT22;847;48.058;7.810;2022-09-09T15:33:47;21.80;73.10
1700;DHT22;847;48.058;7.810;2022-09-09T15:36:15;21.80;72.50
1700;DHT22;847;48.058;7.810;2022-09-09T15:38:42;21.70;73.50
1700;DHT22;847;48.058;7.810;2022-09-09T15:41:09;21.60;73.50
1700;DHT22;847;48.058;7.810;2022-09-09T15:43:38;21.60;73.50
1700;DHT22;847;48.058;7.810;2022-09-09T15:46:25;21.70;73.60
1700;DHT22;847;48.058;7.810;2022-09-09T15:48:53;21.70;73.30
1700;DHT22;847;48.058;7.810;2022-09-09T15:51:20;21.60;73.70
1700;DHT22;847;48.058;7.810;2022-09-09T15:53:47;21.60;74.20
1700;DHT22;847;48.058;7.810;2022-09-09T15:56:13;21.50;74.00
1700;DHT22;847;48.058;7.810;2022-09-09T15:58:41;21.50;74.70
1700;DHT22;847;48.058;7.810;2022-09-09T16:01:10;21.40;74.70
1700;DHT22;847;48.058;7.810;2022-09-09T16:03:39;21.40;75.20
1700;DHT22;847;48.058;7.810;2022-09-09T16:06:06;21.40;75.40
1700;DHT22;847;48.058;7.810;2022-09-09T16:08:34;21.30;75.50
1700;DHT22;847;48.058;7.810;2022-09-09T16:11:05;21.30;75.30
1700;DHT22;847;48.058;7.810;2022-09-09T16:13:33;21.30;77.40
1700;DHT22;847;48.058;7.810;2022-09-09T16:16:02;21.10;79.20
1700;DHT22;847;48.058;7.810;2022-09-09T16:18:34;20.70;82.10
1700;DHT22;847;48.058;7.810;2022-09-09T16:21:01;20.30;85.30
1700;DHT22;847;48.058;7.810;2022-09-09T16:23:28;19.70;87.10
1700;DHT22;847;48.058;7.810;2022-09-09T16:25:55;19.40;88.60
1700;DHT22;847;48.058;7.810;2022-09-09T16:28:22;19.30;90.80
1700;DHT22;847;48.058;7.810;2022-09-09T16:30:49;19.00;90.40
1700;DHT22;847;48.058;7.810;2022-09-09T16:33:17;18.90;91.80
1700;DHT22;847;48.058;7.810;2022-09-09T16:35:44;18.90;92.00
1700;DHT22;847;48.058;7.810;2022-09-09T16:38:11;18.90;92.40
1700;DHT22;847;48.058;7.810;2022-09-09T16:40:38;18.90;92.00